Time;durP1;ratioP1;P1;durP2;ratioP2;P2;SDS_P1;SDS_P2;PMS_P1;PMS_P2;Temp;Humidity;BMP_temperature;BMP_pressure;BME280_temperature;BME280_humidity;BME280_pressure;Samples;Min_cycle;Max_cycle;Signal;HPM_P1;HPM_P2
2020/12/01 00:07:55;;;;;;;1.30;0.80;;;11.50;60.80;;;;;;20817314;28;20040;-78
2020/12/01 00:17:57;;;;;;;2.67;1.63;;;11.40;61.50;;;;;;20727554;28;20450;-78
2020/12/01 00:27:58;;;;;;;2.58;1.33;;;11.40;60.80;;;;;;20761003;28;20046;-78
2020/12/01 00:38:00;;;;;;;2.83;1.02;;;11.40;60.90;;;;;;20783439;28;20492;-79
2020/12/01 00:48:01;;;;;;;2.50;1.23;;;11.40;61.00;;;;;;20779807;28;20082;-78
2020/12/01 00:58:02;;;;;;;1.83;1.02;;;11.40;61.00;;;;;;20786556;28;20035;-78
2020/12/01 01:08:03;;;;;;;1.63;0.98;;;11.40;61.00;;;;;;20734528;28;20047;-78
2020/12/01 01:18:04;;;;;;;1.23;0.75;;;11.40;61.10;;;;;;20812419;28;20121;-78
2020/12/01 01:28:04;;;;;;;4.78;1.08;;;11.40;61.10;;;;;;20775914;28;20042;-78
2020/12/01 01:38:06;;;;;;;2.15;1.50;;;11.40;61.20;;;;;;20752400;28;20042;-78
2020/12/01 01:48:23;;;;;;;2.00;1.30;;;11.40;61.20;;;;;;20780876;28;20044;-78
2020/12/01 01:58:26;;;;;;;2.20;1.13;;;11.40;61.90;;;;;;20768643;28;20043;-77
2020/12/01 02:08:27;;;;;;;2.67;1.40;;;11.40;61.30;;;;;;20746224;28;20391;-78
2020/12/01 02:18:29;;;;;;;3.30;1.17;;;11.40;61.30;;;;;;20798144;28;20037;-78
2020/12/01 02:28:31;;;;;;;1.08;0.77;;;11.40;61.30;;;;;;20725089;28;20384;-79
2020/12/01 02:38:32;;;;;;;2.65;1.55;;;11.30;61.30;;;;;;20797234;28;20070;-78
2020/12/01 02:48:33;;;;;;;1.88;0.80;;;11.40;61.40;;;;;;20792589;28;20494;-78
2020/12/01 02:58:34;;;;;;;3.13;1.38;;;11.40;61.50;;;;;;20795109;28;20037;-78
2020/12/01 03:08:35;;;;;;;1.40;0.85;;;11.40;61.50;;;;;;20682016;28;20100;-78
2020/12/01 03:18:38;;;;;;;2.90;1.30;;;11.40;61.50;;;;;;20781382;28;20034;-77
2020/12/01 03:28:39;;;;;;;1.33;0.60;;;11.40;61.50;;;;;;20787264;28;20044;-77
2020/12/01 03:38:41;;;;;;;1.63;0.93;;;11.40;61.50;;;;;;20804026;28;20035;-78
2020/12/01 03:48:41;;;;;;;2.55;1.15;;;11.40;61.60;;;;;;20784623;28;20096;-78
2020/12/01 03:58:42;;;;;;;1.40;0.70;;;11.40;61.70;;;;;;20753554;28;20040;-78
2020/12/01 04:08:42;;;;;;;2.00;0.60;;;11.30;61.60;;;;;;20763992;28;20078;-78
2020/12/01 04:18:44;;;;;;;2.72;1.58;;;11.30;61.60;;;;;;20865278;28;20052;-78
2020/12/01 04:28:45;;;;;;;2.95;1.23;;;11.30;61.60;;;;;;20735005;28;20052;-78
2020/12/01 04:38:47;;;;;;;1.30;0.77;;;11.30;61.70;;;;;;20722516;28;20437;-77
2020/12/01 04:48:54;;;;;;;1.63;0.52;;;11.30;61.70;;;;;;20751474;28;20070;-77
2020/12/01 04:59:17;;;;;;;2.05;0.98;;;11.30;61.70;;;;;;20764149;28;20058;-77
2020/12/01 05:09:21;;;;;;;1.85;1.25;;;11.30;61.80;;;;;;20757768;28;20477;-78
2020/12/01 05:19:42;;;;;;;1.90;1.00;;;11.40;62.00;;;;;;20758932;28;20070;-78
2020/12/01 05:29:43;;;;;;;2.00;1.17;;;11.50;62.00;;;;;;20764079;28;20073;-77
2020/12/01 05:39:45;;;;;;;2.65;1.17;;;11.70;61.80;;;;;;20761142;28;20046;-77
2020/12/01 05:49:49;;;;;;;1.63;0.73;;;11.80;61.50;;;;;;20757926;28;20495;-70
2020/12/01 05:59:55;;;;;;;1.55;0.90;;;12.00;60.90;;;;;;20738754;28;20039;-74
2020/12/01 06:10:16;;;;;;;1.75;0.95;;;12.10;61.00;;;;;;20767397;28;20040;-75
2020/12/01 06:20:34;;;;;;;0.65;0.63;;;12.20;60.10;;;;;;20789744;28;20041;-74
2020/12/01 06:31:00;;;;;;;2.58;1.00;;;12.20;59.70;;;;;;20822502;28;20050;-79
2020/12/01 06:41:02;;;;;;;2.08;0.93;;;12.10;59.50;;;;;;20787426;28;20074;-75
2020/12/01 06:51:02;;;;;;;1.90;0.75;;;12.00;59.50;;;;;;20731728;28;20482;-79
2020/12/01 07:01:22;;;;;;;1.80;1.17;;;11.90;59.80;;;;;;20764322;28;20121;-79
2020/12/01 07:11:28;;;;;;;0.85;0.65;;;11.80;60.00;;;;;;20792669;28;20043;-78
2020/12/01 07:21:55;;;;;;;1.17;1.00;;;11.70;60.40;;;;;;20776353;28;20034;-78
2020/12/01 07:32:06;;;;;;;1.60;0.97;;;11.70;60.70;;;;;;20723547;28;20079;-78
2020/12/01 07:42:09;;;;;;;2.55;0.85;;;11.60;61.00;;;;;;20770328;28;20059;-77
2020/12/01 07:52:14;;;;;;;3.38;1.20;;;11.60;61.20;;;;;;20829400;28;20060;-79
2020/12/01 08:02:15;;;;;;;1.55;0.90;;;11.60;61.30;;;;;;20757004;28;20053;-79
2020/12/01 08:12:16;;;;;;;3.42;0.93;;;11.60;61.40;;;;;;20741126;28;20101;-79
2020/12/01 08:22:17;;;;;;;1.30;0.88;;;11.60;61.50;;;;;;20699819;28;20476;-78
2020/12/01 08:32:47;;;;;;;0.88;0.75;;;11.60;61.60;;;;;;20779472;28;20039;-79
2020/12/01 08:43:14;;;;;;;1.35;0.85;;;11.60;61.60;;;;;;20761083;28;20041;-77
2020/12/01 08:53:17;;;;;;;1.48;0.52;;;11.60;61.70;;;;;;20808918;28;20479;-78
2020/12/01 09:03:18;;;;;;;1.13;0.75;;;11.50;61.70;;;;;;21203710;23;20045;-77
2020/12/01 09:13:27;;;;;;;1.35;0.50;;;11.50;61.80;;;;;;20818808;28;20041;-77
2020/12/01 09:23:32;;;;;;;2.92;0.90;;;11.50;61.90;;;;;;20810537;28;20033;-77
2020/12/01 09:33:34;;;;;;;1.15;0.80;;;11.60;61.90;;;;;;20832761;28;20521;-79
2020/12/01 09:43:39;;;;;;;0.85;0.60;;;11.50;62.00;;;;;;20831455;28;20026;-78
2020/12/01 10:35:12;;;;;;;1.38;1.08;;;11.50;62.20;;;;;;20808576;28;20048;-78
2020/12/01 10:45:13;;;;;;;1.52;1.35;;;11.50;62.30;;;;;;20819528;28;20040;-78
2020/12/01 10:55:21;;;;;;;0.98;0.60;;;11.50;62.40;;;;;;20816151;28;20485;-77
2020/12/01 11:05:27;;;;;;;1.17;0.70;;;11.50;62.40;;;;;;20777219;28;20036;-77
2020/12/01 11:15:27;;;;;;;1.63;0.75;;;11.50;62.40;;;;;;20803048;28;20039;-78
2020/12/01 11:25:29;;;;;;;2.15;0.60;;;11.50;62.40;;;;;;20784667;28;20049;-79
2020/12/01 11:35:31;;;;;;;1.17;0.70;;;11.50;62.50;;;;;;20805064;28;20399;-80
2020/12/01 11:45:34;;;;;;;0.93;0.45;;;11.50;62.50;;;;;;20788074;28;20034;-79
2020/12/01 11:55:35;;;;;;;0.85;0.50;;;11.50;62.60;;;;;;20811128;28;20053;-80
2020/12/01 12:05:38;;;;;;;1.95;1.05;;;11.50;62.60;;;;;;20821121;28;20036;-80
2020/12/01 12:15:39;;;;;;;1.50;0.82;;;11.50;62.70;;;;;;20805684;28;20048;-81
2020/12/01 12:25:43;;;;;;;1.83;0.65;;;11.50;62.70;;;;;;20764489;28;20423;-81
2020/12/01 12:35:44;;;;;;;0.52;0.52;;;11.50;62.70;;;;;;20801263;28;20087;-81
2020/12/01 12:45:44;;;;;;;2.10;0.80;;;11.50;62.70;;;;;;20823581;28;20033;-81
2020/12/01 12:55:45;;;;;;;1.20;0.70;;;11.50;62.70;;;;;;20788276;28;20045;-79
2020/12/01 13:05:48;;;;;;;0.68;0.55;;;11.50;62.80;;;;;;20782232;28;20029;-75
2020/12/01 13:15:49;;;;;;;0.98;0.57;;;11.50;62.80;;;;;;20829684;28;20057;-77
2020/12/01 13:25:53;;;;;;;3.70;0.80;;;11.50;63.20;;;;;;20818241;28;20057;-78
2020/12/01 13:35:55;;;;;;;0.77;0.43;;;11.50;62.90;;;;;;20818574;28;21031;-77
2020/12/01 13:45:56;;;;;;;1.27;0.60;;;11.50;62.90;;;;;;20801890;28;20125;-75
2020/12/01 13:55:56;;;;;;;6.32;2.10;;;11.50;62.90;;;;;;20811676;28;20475;-77
2020/12/01 14:05:58;;;;;;;2.75;1.05;;;11.50;63.00;;;;;;20800606;28;20371;-76
2020/12/01 14:15:59;;;;;;;2.10;0.68;;;11.40;63.20;;;;;;20773656;28;20068;-70
2020/12/01 14:26:00;;;;;;;3.53;1.67;;;11.40;63.20;;;;;;20809677;28;20492;-71
2020/12/01 14:36:02;;;;;;;2.75;1.45;;;11.40;63.30;;;;;;20811762;28;20102;-70
2020/12/01 14:46:03;;;;;;;2.38;1.30;;;11.40;63.20;;;;;;20812201;28;20025;-70
2020/12/01 14:56:35;;;;;;;0.40;0.32;;;11.40;63.30;;;;;;20811092;28;20138;-71
2020/12/01 15:06:48;;;;;;;1.00;0.70;;;11.40;63.30;;;;;;20812454;28;20037;-70
2020/12/01 15:17:03;;;;;;;2.40;0.95;;;11.40;63.40;;;;;;20825878;28;20063;-74
2020/12/01 15:27:05;;;;;;;1.33;0.98;;;11.50;63.50;;;;;;20795856;28;20124;-72
2020/12/01 15:37:07;;;;;;;0.93;0.57;;;11.70;63.40;;;;;;20798165;28;20038;-72
2020/12/01 15:47:07;;;;;;;2.55;1.10;;;11.80;63.10;;;;;;20807943;28;20033;-72
2020/12/01 15:57:46;;;;;;;1.55;0.77;;;12.00;62.70;;;;;;20807015;28;20128;-69
2020/12/01 16:08:18;;;;;;;2.92;0.82;;;12.10;62.30;;;;;;20804311;28;20495;-71
2020/12/01 16:18:53;;;;;;;1.60;1.17;;;12.20;61.80;;;;;;20813715;28;20099;-70
2020/12/01 16:29:14;;;;;;;1.70;1.13;;;12.20;61.50;;;;;;20784525;28;20042;-72
2020/12/01 16:39:15;;;;;;;2.85;1.77;;;12.20;61.10;;;;;;20805749;28;20115;-72
2020/12/01 16:49:46;;;;;;;0.88;0.65;;;12.10;61.00;;;;;;20798467;28;20045;-70
2020/12/01 17:00:29;;;;;;;2.03;1.13;;;12.00;61.20;;;;;;20809898;28;20041;-71
2020/12/01 17:10:34;;;;;;;1.30;0.88;;;11.90;61.30;;;;;;20800561;28;20072;-71
2020/12/01 17:20:35;;;;;;;1.08;0.90;;;11.90;61.60;;;;;;20805645;28;20037;-76
2020/12/01 17:30:54;;;;;;;1.38;1.13;;;11.90;61.90;;;;;;20836115;28;20037;-78
2020/12/01 17:41:22;;;;;;;1.50;0.47;;;11.80;62.10;;;;;;20810189;28;20033;-69
2020/12/01 17:51:39;;;;;;;0.93;0.80;;;11.70;62.40;;;;;;20820358;28;20037;-77
2020/12/01 18:01:40;;;;;;;0.82;0.47;;;11.80;62.50;;;;;;20792337;28;20029;-76
2020/12/01 18:11:52;;;;;;;1.58;1.10;;;11.70;62.60;;;;;;20798838;28;20044;-77
2020/12/01 18:21:58;;;;;;;1.88;0.98;;;11.70;62.70;;;;;;20807985;28;20037;-75
2020/12/01 18:32:19;;;;;;;1.67;0.68;;;11.70;62.90;;;;;;20828246;28;20479;-78
2020/12/01 18:42:23;;;;;;;1.17;0.75;;;11.60;62.90;;;;;;20830628;28;21210;-80
2020/12/01 18:52:26;;;;;;;0.55;0.50;;;11.60;63.00;;;;;;20799923;28;20040;-77
2020/12/01 19:02:27;;;;;;;1.70;0.80;;;11.60;63.00;;;;;;20815883;28;20041;-80
2020/12/01 19:12:27;;;;;;;1.83;1.00;;;11.60;63.00;;;;;;20812465;28;20064;-76
2020/12/01 19:22:29;;;;;;;2.90;0.80;;;11.60;63.00;;;;;;20759062;28;20376;-79
2020/12/01 19:32:30;;;;;;;2.03;0.82;;;11.60;63.00;;;;;;20830988;28;20117;-79
2020/12/01 19:42:35;;;;;;;1.33;0.57;;;11.60;63.10;;;;;;20814599;28;20045;-78
2020/12/01 19:52:38;;;;;;;1.42;1.00;;;11.60;63.00;;;;;;20786477;28;20045;-79
2020/12/01 20:02:39;;;;;;;1.60;0.88;;;11.60;63.10;;;;;;20826034;28;20403;-79
2020/12/01 20:12:45;;;;;;;2.53;1.13;;;11.60;63.10;;;;;;20808782;28;20041;-78
2020/12/01 20:22:46;;;;;;;2.17;0.90;;;11.50;63.00;;;;;;20805730;28;20294;-78
2020/12/01 20:32:48;;;;;;;1.23;0.70;;;11.60;63.00;;;;;;20824221;28;20048;-78
2020/12/01 20:42:50;;;;;;;0.63;0.52;;;11.60;63.00;;;;;;20778764;28;20029;-80
2020/12/01 20:52:51;;;;;;;1.75;0.80;;;11.60;63.10;;;;;;20783510;28;20026;-77
2020/12/01 21:02:54;;;;;;;2.08;1.15;;;11.60;63.10;;;;;;20821224;28;20029;-81
2020/12/01 21:13:18;;;;;;;1.30;0.60;;;11.60;63.20;;;;;;20826789;28;20033;-78
2020/12/01 21:23:19;;;;;;;1.42;0.70;;;11.50;63.00;;;;;;20818363;28;20048;-79
2020/12/01 21:33:27;;;;;;;2.35;0.93;;;11.50;63.10;;;;;;20781481;28;20067;-79
2020/12/01 21:43:50;;;;;;;0.63;0.63;;;11.60;63.10;;;;;;20824162;28;20049;-78
2020/12/01 21:54:01;;;;;;;1.38;0.85;;;11.50;63.20;;;;;;20818124;28;20039;-80
2020/12/01 22:04:25;;;;;;;1.83;0.73;;;11.50;63.10;;;;;;20830663;28;20041;-79
2020/12/01 22:14:33;;;;;;;1.85;0.98;;;11.50;63.20;;;;;;20837350;28;20395;-79
2020/12/01 22:24:59;;;;;;;1.80;0.95;;;11.50;63.20;;;;;;20821179;28;20442;-78
2020/12/01 22:35:33;;;;;;;0.88;0.50;;;11.50;63.20;;;;;;20819508;28;20142;-79
2020/12/01 22:45:55;;;;;;;2.97;0.77;;;11.50;63.30;;;;;;20820659;28;20037;-80
2020/12/01 22:56:17;;;;;;;1.35;0.80;;;11.50;63.20;;;;;;20833674;28;20044;-79
2020/12/01 23:06:27;;;;;;;2.22;1.20;;;11.50;63.20;;;;;;20817168;28;20041;-80
2020/12/01 23:16:35;;;;;;;0.98;0.50;;;11.50;64.00;;;;;;20800704;28;20495;-80
2020/12/01 23:26:41;;;;;;;3.47;1.23;;;11.50;63.20;;;;;;20832056;28;20048;-79
2020/12/01 23:36:41;;;;;;;1.38;0.80;;;11.50;63.20;;;;;;20799283;28;20060;-79
2020/12/01 23:46:50;;;;;;;1.42;1.00;;;11.50;63.20;;;;;;20830220;28;20120;-80
2020/12/01 23:56:55;;;;;;;1.83;1.30;;;11.50;63.20;;;;;;20830036;28;20109;-78
